createdAt,value
2022-10-19T00:05:18.751Z,14.07
2022-10-19T00:15:19.090Z,13.57
2022-10-19T00:25:19.132Z,13.32
2022-10-19T00:35:19.431Z,13.03
2022-10-19T00:45:19.470Z,13.00
2022-10-19T00:55:19.774Z,12.95
2022-10-19T01:05:19.807Z,12.96
2022-10-19T01:15:20.137Z,12.74
2022-10-19T01:25:20.163Z,12.62
2022-10-19T01:35:20.481Z,12.59
2022-10-19T01:45:20.522Z,12.41
2022-10-19T01:55:20.838Z,12.34
2022-10-19T02:05:20.870Z,12.38
2022-10-19T02:15:21.169Z,12.10
2022-10-19T02:25:21.346Z,12.13
2022-10-19T02:35:21.424Z,11.85
2022-10-19T02:45:21.459Z,11.98
2022-10-19T02:55:21.766Z,11.90
2022-10-19T03:05:21.805Z,11.67
2022-10-19T03:15:22.158Z,11.36
2022-10-19T03:25:22.194Z,11.32
2022-10-19T03:35:22.469Z,11.39
2022-10-19T03:45:22.513Z,11.32
2022-10-19T03:55:22.820Z,11.15
2022-10-19T04:05:22.846Z,11.04
2022-10-19T04:15:23.177Z,11.18
2022-10-19T04:25:23.195Z,11.11
2022-10-19T04:35:23.526Z,11.15
2022-10-19T04:45:23.549Z,11.04
2022-10-19T04:55:23.867Z,11.00
2022-10-19T05:05:23.882Z,11.04
2022-10-19T05:15:24.218Z,11.03
2022-10-19T05:25:24.252Z,10.85
2022-10-19T05:35:24.568Z,10.96
2022-10-19T05:45:24.589Z,10.73
2022-10-19T05:55:24.915Z,10.60
2022-10-19T06:05:24.935Z,10.48
2022-10-19T06:15:25.264Z,10.53
2022-10-19T06:25:25.293Z,10.60
2022-10-19T06:35:25.620Z,11.18
2022-10-19T06:45:25.640Z,11.98
2022-10-19T06:55:25.963Z,12.14
2022-10-19T07:05:25.995Z,12.23
2022-10-19T07:15:26.314Z,12.60
2022-10-19T07:25:26.336Z,12.77
2022-10-19T07:35:26.664Z,13.33
2022-10-19T07:45:26.788Z,13.69
2022-10-19T07:55:26.913Z,14.32
2022-10-19T08:05:27.067Z,14.94
2022-10-19T08:15:27.180Z,15.86
2022-10-19T08:25:27.502Z,16.48
2022-10-19T08:35:27.624Z,16.42
2022-10-19T08:45:27.641Z,16.97
2022-10-19T08:55:27.965Z,17.56
2022-10-19T09:05:27.992Z,17.78
2022-10-19T09:15:28.329Z,18.03
2022-10-19T09:25:28.351Z,18.73
2022-10-19T09:35:28.665Z,18.95
2022-10-19T09:45:28.689Z,19.69
2022-10-19T09:55:29.019Z,19.91
2022-10-19T10:05:29.043Z,20.21
2022-10-19T10:15:29.357Z,20.18
2022-10-19T10:25:29.375Z,20.74
2022-10-19T10:35:29.718Z,21.25
2022-10-19T10:45:29.734Z,21.37
2022-10-19T10:55:30.068Z,21.91
2022-10-19T11:05:30.095Z,21.94
2022-10-19T11:25:30.582Z,22.70
2022-10-19T11:35:30.867Z,22.57
2022-10-19T11:45:30.900Z,22.64
2022-10-19T11:55:31.233Z,22.45
2022-10-19T12:05:31.260Z,23.15
2022-10-19T12:15:31.565Z,23.04
2022-10-19T12:25:31.594Z,22.72
2022-10-19T12:35:31.915Z,23.46
2022-10-19T12:45:31.948Z,22.98
2022-10-19T12:55:32.274Z,23.27
2022-10-19T13:05:32.307Z,23.42
2022-10-19T13:15:32.623Z,23.73
2022-10-19T13:25:32.661Z,23.43
2022-10-19T13:35:32.964Z,23.47
2022-10-19T13:45:32.986Z,23.13
2022-10-19T13:55:33.312Z,23.19
2022-10-19T14:05:33.362Z,22.77
2022-10-19T14:15:33.677Z,22.64
2022-10-19T14:25:33.686Z,21.86
2022-10-19T14:35:33.905Z,21.13
2022-10-19T14:45:33.940Z,20.62
2022-10-19T14:55:34.278Z,20.48
2022-10-19T15:05:34.306Z,20.23
2022-10-19T15:15:34.608Z,20.24
2022-10-19T15:25:34.708Z,20.02
2022-10-19T15:35:34.859Z,19.87
2022-10-19T15:45:34.888Z,19.56
2022-10-19T15:55:35.210Z,19.41
2022-10-19T16:05:35.248Z,19.39
2022-10-19T16:15:35.731Z,19.07
2022-10-19T16:25:35.670Z,18.92
2022-10-19T16:35:35.833Z,18.45
2022-10-19T16:45:35.863Z,18.27
2022-10-19T16:55:36.380Z,18.12
2022-10-19T17:05:36.532Z,17.93
2022-10-19T17:15:42.838Z,17.84
2022-10-19T17:25:39.655Z,17.48
2022-10-19T17:35:37.153Z,17.25
2022-10-19T17:45:37.197Z,17.04
2022-10-19T17:55:37.471Z,16.93
2022-10-19T18:05:37.961Z,16.86
2022-10-19T18:15:37.654Z,16.67
2022-10-19T18:25:53.541Z,16.53
2022-10-19T18:35:38.559Z,16.53
2022-10-19T18:45:38.111Z,16.46
2022-10-19T18:55:38.259Z,16.30
2022-10-19T19:05:38.886Z,15.96
2022-10-19T19:15:38.861Z,15.78
2022-10-19T19:25:38.934Z,15.64
2022-10-19T19:35:40.579Z,15.31
2022-10-19T19:45:39.105Z,15.19
2022-10-19T19:55:39.471Z,15.25
2022-10-19T20:05:39.706Z,15.13
2022-10-19T20:15:39.836Z,14.95
2022-10-19T20:25:40.019Z,14.73
2022-10-19T20:35:40.063Z,14.64
2022-10-19T20:45:40.238Z,14.58
2022-10-19T20:55:40.304Z,14.57
2022-10-19T21:05:41.014Z,14.43
2022-10-19T21:15:40.796Z,14.25
2022-10-19T21:25:40.872Z,14.15
2022-10-19T21:35:41.016Z,14.03
2022-10-19T21:45:41.122Z,14.06
2022-10-19T21:55:41.146Z,14.06
2022-10-19T22:05:41.380Z,13.97
2022-10-19T22:15:41.599Z,13.96
2022-10-19T22:25:41.936Z,13.71
2022-10-19T22:35:41.967Z,13.81
2022-10-19T22:45:42.287Z,13.70
2022-10-19T22:55:42.389Z,13.81
2022-10-19T23:05:42.538Z,13.75
2022-10-19T23:15:43.981Z,13.59
2022-10-19T23:25:42.852Z,13.52
2022-10-19T23:35:42.880Z,13.25
2022-10-19T23:45:43.131Z,13.17
2022-10-19T23:55:43.352Z,12.83
